sensor_id;sensor_type;location;lat;lon;timestamp;P1;durP1;ratioP1;P2;durP2;ratioP2
64403;SDS011;50726;54.912;-8.392;2022-12-18T00:00:49;1317.75;;;795.53;;
64403;SDS011;50726;54.912;-8.392;2022-12-18T00:03:15;1314.50;;;794.30;;
64403;SDS011;50726;54.912;-8.392;2022-12-18T00:05:48;1297.32;;;792.50;;
64403;SDS011;50726;54.912;-8.392;2022-12-18T00:11:08;1317.22;;;796.28;;
64403;SDS011;50726;54.912;-8.392;2022-12-18T00:13:39;1310.43;;;798.08;;
64403;SDS011;50726;54.912;-8.392;2022-12-18T00:16:09;1324.55;;;801.50;;
64403;SDS011;50726;54.912;-8.392;2022-12-18T00:18:36;1324.65;;;806.80;;
64403;SDS011;50726;54.912;-8.392;2022-12-18T00:21:04;1332.10;;;805.00;;
64403;SDS011;50726;54.912;-8.392;2022-12-18T00:29:06;1345.43;;;802.83;;
64403;SDS011;50726;54.912;-8.392;2022-12-18T00:34:09;1327.43;;;797.17;;
64403;SDS011;50726;54.912;-8.392;2022-12-18T00:39:09;1325.22;;;795.50;;
64403;SDS011;50726;54.912;-8.392;2022-12-18T00:41:37;1309.95;;;781.03;;
64403;SDS011;50726;54.912;-8.392;2022-12-18T00:44:21;1271.47;;;778.78;;
64403;SDS011;50726;54.912;-8.392;2022-12-18T00:49:17;1286.18;;;785.42;;
64403;SDS011;50726;54.912;-8.392;2022-12-18T00:51:48;1269.85;;;784.03;;
64403;SDS011;50726;54.912;-8.392;2022-12-18T01:02:09;1313.93;;;786.30;;
64403;SDS011;50726;54.912;-8.392;2022-12-18T01:04:39;1300.00;;;788.85;;
64403;SDS011;50726;54.912;-8.392;2022-12-18T01:07:05;1280.15;;;789.92;;
64403;SDS011;50726;54.912;-8.392;2022-12-18T01:09:32;1297.50;;;787.08;;
64403;SDS011;50726;54.912;-8.392;2022-12-18T01:11:57;1307.70;;;794.60;;
64403;SDS011;50726;54.912;-8.392;2022-12-18T01:14:32;1316.78;;;802.05;;
64403;SDS011;50726;54.912;-8.392;2022-12-18T01:16:59;1323.13;;;800.47;;
64403;SDS011;50726;54.912;-8.392;2022-12-18T01:19:28;1325.78;;;794.80;;
64403;SDS011;50726;54.912;-8.392;2022-12-18T01:21:55;1334.07;;;796.25;;
64403;SDS011;50726;54.912;-8.392;2022-12-18T01:24:21;1305.00;;;795.97;;
64403;SDS011;50726;54.912;-8.392;2022-12-18T01:26:47;1282.03;;;781.42;;
64403;SDS011;50726;54.912;-8.392;2022-12-18T01:29:14;1256.47;;;781.17;;
64403;SDS011;50726;54.912;-8.392;2022-12-18T01:31:39;1286.93;;;780.97;;
64403;SDS011;50726;54.912;-8.392;2022-12-18T01:34:05;1281.20;;;792.63;;
64403;SDS011;50726;54.912;-8.392;2022-12-18T01:36:32;1298.80;;;795.75;;
64403;SDS011;50726;54.912;-8.392;2022-12-18T01:39:17;1337.53;;;801.97;;
64403;SDS011;50726;54.912;-8.392;2022-12-18T01:41:44;1357.75;;;810.63;;
64403;SDS011;50726;54.912;-8.392;2022-12-18T01:50:29;1390.00;;;817.20;;
64403;SDS011;50726;54.912;-8.392;2022-12-18T01:53:12;1395.45;;;814.15;;
64403;SDS011;50726;54.912;-8.392;2022-12-18T01:55:51;1394.47;;;815.97;;
64403;SDS011;50726;54.912;-8.392;2022-12-18T01:58:19;1385.82;;;815.38;;
64403;SDS011;50726;54.912;-8.392;2022-12-18T02:00:53;1396.38;;;815.20;;
64403;SDS011;50726;54.912;-8.392;2022-12-18T02:03:20;1394.75;;;827.50;;
64403;SDS011;50726;54.912;-8.392;2022-12-18T02:05:47;1383.80;;;821.88;;
64403;SDS011;50726;54.912;-8.392;2022-12-18T02:08:26;1381.05;;;822.60;;
64403;SDS011;50726;54.912;-8.392;2022-12-18T02:11:33;1385.13;;;829.92;;
64403;SDS011;50726;54.912;-8.392;2022-12-18T02:14:13;1379.78;;;831.75;;
64403;SDS011;50726;54.912;-8.392;2022-12-18T02:17:28;1404.15;;;833.92;;
64403;SDS011;50726;54.912;-8.392;2022-12-18T02:28:32;1432.18;;;838.47;;
64403;SDS011;50726;54.912;-8.392;2022-12-18T02:31:06;1440.75;;;828.75;;
64403;SDS011;50726;54.912;-8.392;2022-12-18T02:33:36;1459.82;;;831.13;;
64403;SDS011;50726;54.912;-8.392;2022-12-18T02:36:04;1465.80;;;833.42;;
64403;SDS011;50726;54.912;-8.392;2022-12-18T02:38:32;1460.07;;;836.08;;
64403;SDS011;50726;54.912;-8.392;2022-12-18T02:41:00;1458.80;;;831.90;;
64403;SDS011;50726;54.912;-8.392;2022-12-18T02:43:26;1462.88;;;833.45;;
64403;SDS011;50726;54.912;-8.392;2022-12-18T02:45:59;1469.20;;;833.63;;
64403;SDS011;50726;54.912;-8.392;2022-12-18T02:48:45;1449.63;;;826.95;;
64403;SDS011;50726;54.912;-8.392;2022-12-18T02:51:21;1432.03;;;819.40;;
64403;SDS011;50726;54.912;-8.392;2022-12-18T02:54:29;1464.25;;;830.20;;
64403;SDS011;50726;54.912;-8.392;2022-12-18T02:56:51;1439.03;;;821.97;;
64403;SDS011;50726;54.912;-8.392;2022-12-18T02:59:38;1450.35;;;825.65;;
64403;SDS011;50726;54.912;-8.392;2022-12-18T03:02:21;1432.38;;;826.53;;
64403;SDS011;50726;54.912;-8.392;2022-12-18T03:08:15;1461.80;;;837.60;;
64403;SDS011;50726;54.912;-8.392;2022-12-18T03:11:04;1480.10;;;846.92;;
64403;SDS011;50726;54.912;-8.392;2022-12-18T03:13:33;1491.82;;;847.03;;
64403;SDS011;50726;54.912;-8.392;2022-12-18T03:16:11;1493.45;;;853.33;;
64403;SDS011;50726;54.912;-8.392;2022-12-18T03:18:54;1499.65;;;858.13;;
64403;SDS011;50726;54.912;-8.392;2022-12-18T03:21:27;1434.90;;;860.33;;
64403;SDS011;50726;54.912;-8.392;2022-12-18T03:23:58;1435.03;;;861.80;;
64403;SDS011;50726;54.912;-8.392;2022-12-18T03:26:25;1454.53;;;866.17;;
64403;SDS011;50726;54.912;-8.392;2022-12-18T03:28:59;1454.97;;;864.88;;
64403;SDS011;50726;54.912;-8.392;2022-12-18T03:31:34;1463.50;;;857.42;;
64403;SDS011;50726;54.912;-8.392;2022-12-18T03:34:04;1470.28;;;854.78;;
64403;SDS011;50726;54.912;-8.392;2022-12-18T03:36:34;1469.40;;;855.92;;
64403;SDS011;50726;54.912;-8.392;2022-12-18T03:39:00;1482.00;;;866.38;;
64403;SDS011;50726;54.912;-8.392;2022-12-18T03:41:33;1484.75;;;861.90;;
64403;SDS011;50726;54.912;-8.392;2022-12-18T03:49:35;1551.18;;;874.65;;
64403;SDS011;50726;54.912;-8.392;2022-12-18T03:52:12;1587.18;;;881.28;;
64403;SDS011;50726;54.912;-8.392;2022-12-18T03:54:43;1589.65;;;883.22;;
64403;SDS011;50726;54.912;-8.392;2022-12-18T03:57:13;1598.60;;;889.05;;
64403;SDS011;50726;54.912;-8.392;2022-12-18T03:59:47;1593.72;;;894.50;;
64403;SDS011;50726;54.912;-8.392;2022-12-18T04:02:16;1599.90;;;898.22;;
64403;SDS011;50726;54.912;-8.392;2022-12-18T04:04:45;1629.18;;;903.30;;
64403;SDS011;50726;54.912;-8.392;2022-12-18T04:07:15;1635.47;;;897.67;;
64403;SDS011;50726;54.912;-8.392;2022-12-18T04:09:42;1641.55;;;896.80;;
64403;SDS011;50726;54.912;-8.392;2022-12-18T04:12:10;1650.50;;;902.75;;
64403;SDS011;50726;54.912;-8.392;2022-12-18T04:17:11;1638.88;;;901.47;;
64403;SDS011;50726;54.912;-8.392;2022-12-18T04:19:37;1651.75;;;906.60;;
64403;SDS011;50726;54.912;-8.392;2022-12-18T04:22:03;1638.90;;;907.15;;
64403;SDS011;50726;54.912;-8.392;2022-12-18T04:24:28;1654.28;;;909.17;;
64403;SDS011;50726;54.912;-8.392;2022-12-18T04:26:54;1636.80;;;911.60;;
64403;SDS011;50726;54.912;-8.392;2022-12-18T04:29:20;1659.20;;;911.92;;
64403;SDS011;50726;54.912;-8.392;2022-12-18T04:31:46;1648.32;;;913.95;;
64403;SDS011;50726;54.912;-8.392;2022-12-18T04:34:11;1684.47;;;919.78;;
64403;SDS011;50726;54.912;-8.392;2022-12-18T04:36:37;1706.38;;;923.30;;
64403;SDS011;50726;54.912;-8.392;2022-12-18T04:39:06;1698.03;;;930.28;;
64403;SDS011;50726;54.912;-8.392;2022-12-18T04:41:32;1696.22;;;926.47;;
64403;SDS011;50726;54.912;-8.392;2022-12-18T04:43:57;1717.63;;;927.63;;
64403;SDS011;50726;54.912;-8.392;2022-12-18T04:46:23;1658.43;;;947.85;;
64403;SDS011;50726;54.912;-8.392;2022-12-18T04:48:51;1654.35;;;941.47;;
64403;SDS011;50726;54.912;-8.392;2022-12-18T04:51:17;1660.20;;;945.55;;
64403;SDS011;50726;54.912;-8.392;2022-12-18T04:53:43;1659.72;;;943.28;;
64403;SDS011;50726;54.912;-8.392;2022-12-18T04:56:13;1641.10;;;934.85;;
64403;SDS011;50726;54.912;-8.392;2022-12-18T04:58:40;1664.43;;;944.20;;
64403;SDS011;50726;54.912;-8.392;2022-12-18T05:01:08;1636.93;;;937.08;;
64403;SDS011;50726;54.912;-8.392;2022-12-18T05:03:35;1667.10;;;937.17;;
64403;SDS011;50726;54.912;-8.392;2022-12-18T05:06:02;1681.60;;;948.10;;
64403;SDS011;50726;54.912;-8.392;2022-12-18T05:08:28;1677.20;;;946.17;;
64403;SDS011;50726;54.912;-8.392;2022-12-18T05:11:01;1671.40;;;943.15;;
64403;SDS011;50726;54.912;-8.392;2022-12-18T05:13:29;1665.85;;;947.50;;
64403;SDS011;50726;54.912;-8.392;2022-12-18T05:15:55;1743.00;;;935.47;;
64403;SDS011;50726;54.912;-8.392;2022-12-18T05:18:21;1747.40;;;934.60;;
64403;SDS011;50726;54.912;-8.392;2022-12-18T05:20:49;1749.13;;;937.65;;
64403;SDS011;50726;54.912;-8.392;2022-12-18T05:23:16;1757.18;;;941.08;;
64403;SDS011;50726;54.912;-8.392;2022-12-18T05:25:42;1743.95;;;936.42;;
64403;SDS011;50726;54.912;-8.392;2022-12-18T05:28:08;1747.45;;;933.15;;
64403;SDS011;50726;54.912;-8.392;2022-12-18T05:30:33;1726.32;;;932.05;;
64403;SDS011;50726;54.912;-8.392;2022-12-18T05:33:00;1749.65;;;938.88;;
64403;SDS011;50726;54.912;-8.392;2022-12-18T05:35:25;1739.93;;;934.05;;
64403;SDS011;50726;54.912;-8.392;2022-12-18T05:37:51;1722.18;;;935.55;;
64403;SDS011;50726;54.912;-8.392;2022-12-18T05:40:17;1719.95;;;948.72;;
64403;SDS011;50726;54.912;-8.392;2022-12-18T05:42:43;1739.95;;;936.20;;
64403;SDS011;50726;54.912;-8.392;2022-12-18T05:45:08;1740.53;;;945.47;;
64403;SDS011;50726;54.912;-8.392;2022-12-18T05:47:34;1764.75;;;933.03;;
64403;SDS011;50726;54.912;-8.392;2022-12-18T05:50:00;1767.28;;;940.00;;
64403;SDS011;50726;54.912;-8.392;2022-12-18T05:52:26;1767.03;;;949.28;;
64403;SDS011;50726;54.912;-8.392;2022-12-18T05:54:52;1764.93;;;945.72;;
64403;SDS011;50726;54.912;-8.392;2022-12-18T05:57:17;1764.53;;;951.13;;
64403;SDS011;50726;54.912;-8.392;2022-12-18T05:59:43;1771.95;;;951.95;;
64403;SDS011;50726;54.912;-8.392;2022-12-18T06:02:09;1783.07;;;953.35;;
64403;SDS011;50726;54.912;-8.392;2022-12-18T06:04:34;1777.88;;;944.92;;
64403;SDS011;50726;54.912;-8.392;2022-12-18T06:07:01;1783.18;;;948.90;;
64403;SDS011;50726;54.912;-8.392;2022-12-18T06:09:29;1780.28;;;952.35;;
64403;SDS011;50726;54.912;-8.392;2022-12-18T06:11:55;1771.78;;;952.30;;
64403;SDS011;50726;54.912;-8.392;2022-12-18T06:14:21;1790.00;;;957.13;;
64403;SDS011;50726;54.912;-8.392;2022-12-18T06:16:47;1780.65;;;962.58;;
64403;SDS011;50726;54.912;-8.392;2022-12-18T06:19:15;1783.30;;;961.92;;
64403;SDS011;50726;54.912;-8.392;2022-12-18T06:24:10;1787.65;;;974.33;;
64403;SDS011;50726;54.912;-8.392;2022-12-18T06:26:40;1797.20;;;968.83;;
64403;SDS011;50726;54.912;-8.392;2022-12-18T06:29:06;1774.57;;;979.05;;
64403;SDS011;50726;54.912;-8.392;2022-12-18T06:31:32;1832.43;;;978.90;;
64403;SDS011;50726;54.912;-8.392;2022-12-18T06:33:58;1830.13;;;979.75;;
64403;SDS011;50726;54.912;-8.392;2022-12-18T06:36:23;1818.53;;;975.17;;
64403;SDS011;50726;54.912;-8.392;2022-12-18T06:38:49;1846.85;;;986.05;;
64403;SDS011;50726;54.912;-8.392;2022-12-18T06:41:19;1812.28;;;975.17;;
64403;SDS011;50726;54.912;-8.392;2022-12-18T06:43:46;1849.38;;;979.13;;
64403;SDS011;50726;54.912;-8.392;2022-12-18T06:46:12;1840.15;;;992.30;;
64403;SDS011;50726;54.912;-8.392;2022-12-18T06:48:38;1855.80;;;998.55;;
64403;SDS011;50726;54.912;-8.392;2022-12-18T06:51:04;1849.05;;;996.85;;
64403;SDS011;50726;54.912;-8.392;2022-12-18T06:53:31;1858.65;;;998.95;;
64403;SDS011;50726;54.912;-8.392;2022-12-18T06:56:05;1801.55;;;996.55;;
64403;SDS011;50726;54.912;-8.392;2022-12-18T06:58:32;1857.25;;;999.85;;
64403;SDS011;50726;54.912;-8.392;2022-12-18T07:01:02;1849.90;;;999.90;;
64403;SDS011;50726;54.912;-8.392;2022-12-18T07:03:29;1873.60;;;999.90;;
64403;SDS011;50726;54.912;-8.392;2022-12-18T07:05:58;1869.43;;;999.90;;
64403;SDS011;50726;54.912;-8.392;2022-12-18T07:08:26;1920.63;;;999.90;;
64403;SDS011;50726;54.912;-8.392;2022-12-18T07:10:51;1858.18;;;999.90;;
64403;SDS011;50726;54.912;-8.392;2022-12-18T07:13:20;1880.50;;;999.90;;
64403;SDS011;50726;54.912;-8.392;2022-12-18T07:18:14;1901.45;;;999.90;;
64403;SDS011;50726;54.912;-8.392;2022-12-18T07:20:40;1887.88;;;999.90;;
64403;SDS011;50726;54.912;-8.392;2022-12-18T07:23:07;1924.85;;;999.90;;
64403;SDS011;50726;54.912;-8.392;2022-12-18T07:25:37;1921.65;;;999.90;;
64403;SDS011;50726;54.912;-8.392;2022-12-18T07:28:02;1940.40;;;999.90;;
64403;SDS011;50726;54.912;-8.392;2022-12-18T07:30:29;1958.03;;;999.90;;
64403;SDS011;50726;54.912;-8.392;2022-12-18T07:35:23;1951.17;;;999.90;;
64403;SDS011;50726;54.912;-8.392;2022-12-18T07:37:51;1931.40;;;999.90;;
64403;SDS011;50726;54.912;-8.392;2022-12-18T07:40:17;1904.80;;;995.47;;
64403;SDS011;50726;54.912;-8.392;2022-12-18T07:42:45;1906.65;;;998.42;;
64403;SDS011;50726;54.912;-8.392;2022-12-18T07:45:10;1893.80;;;986.53;;
64403;SDS011;50726;54.912;-8.392;2022-12-18T07:47:39;1921.60;;;987.53;;
64403;SDS011;50726;54.912;-8.392;2022-12-18T07:52:33;1880.38;;;972.38;;
64403;SDS011;50726;54.912;-8.392;2022-12-18T07:55:00;1863.93;;;972.08;;
64403;SDS011;50726;54.912;-8.392;2022-12-18T07:57:25;1846.68;;;964.42;;
64403;SDS011;50726;54.912;-8.392;2022-12-18T07:59:54;1851.35;;;965.88;;
64403;SDS011;50726;54.912;-8.392;2022-12-18T08:02:23;1853.18;;;960.95;;
64403;SDS011;50726;54.912;-8.392;2022-12-18T08:04:57;1834.18;;;952.33;;
64403;SDS011;50726;54.912;-8.392;2022-12-18T08:07:23;1809.22;;;957.05;;
64403;SDS011;50726;54.912;-8.392;2022-12-18T08:09:51;1829.97;;;957.92;;
64403;SDS011;50726;54.912;-8.392;2022-12-18T08:12:28;1830.60;;;953.85;;
64403;SDS011;50726;54.912;-8.392;2022-12-18T08:14:55;1816.82;;;952.20;;
64403;SDS011;50726;54.912;-8.392;2022-12-18T08:17:22;1805.82;;;949.78;;
64403;SDS011;50726;54.912;-8.392;2022-12-18T08:19:52;1793.90;;;946.08;;
64403;SDS011;50726;54.912;-8.392;2022-12-18T08:22:20;1783.22;;;946.60;;
64403;SDS011;50726;54.912;-8.392;2022-12-18T08:24:47;1809.07;;;944.37;;
64403;SDS011;50726;54.912;-8.392;2022-12-18T08:27:19;1810.22;;;944.20;;
64403;SDS011;50726;54.912;-8.392;2022-12-18T08:32:21;1811.72;;;950.65;;
64403;SDS011;50726;54.912;-8.392;2022-12-18T08:34:48;1791.10;;;941.75;;
64403;SDS011;50726;54.912;-8.392;2022-12-18T08:37:13;1775.18;;;939.50;;
64403;SDS011;50726;54.912;-8.392;2022-12-18T08:39:40;1758.13;;;934.25;;
64403;SDS011;50726;54.912;-8.392;2022-12-18T08:42:06;1750.43;;;941.42;;
64403;SDS011;50726;54.912;-8.392;2022-12-18T08:44:51;1729.65;;;930.45;;
64403;SDS011;50726;54.912;-8.392;2022-12-18T08:47:17;1716.85;;;923.60;;
64403;SDS011;50726;54.912;-8.392;2022-12-18T08:49:42;1711.22;;;933.08;;
64403;SDS011;50726;54.912;-8.392;2022-12-18T08:52:08;1693.47;;;937.70;;
64403;SDS011;50726;54.912;-8.392;2022-12-18T08:54:35;1700.97;;;926.40;;
64403;SDS011;50726;54.912;-8.392;2022-12-18T08:57:00;1676.82;;;923.22;;
64403;SDS011;50726;54.912;-8.392;2022-12-18T08:59:33;1626.55;;;925.25;;
64403;SDS011;50726;54.912;-8.392;2022-12-18T09:01:59;1626.05;;;917.53;;
64403;SDS011;50726;54.912;-8.392;2022-12-18T09:04:25;1635.50;;;924.05;;
64403;SDS011;50726;54.912;-8.392;2022-12-18T09:06:50;1584.57;;;912.90;;
64403;SDS011;50726;54.912;-8.392;2022-12-18T09:09:17;1608.53;;;903.38;;
64403;SDS011;50726;54.912;-8.392;2022-12-18T09:11:45;1627.13;;;906.00;;
64403;SDS011;50726;54.912;-8.392;2022-12-18T09:14:14;1575.18;;;905.67;;
64403;SDS011;50726;54.912;-8.392;2022-12-18T09:19:27;1573.97;;;894.80;;
64403;SDS011;50726;54.912;-8.392;2022-12-18T09:22:02;1545.30;;;918.30;;
64403;SDS011;50726;54.912;-8.392;2022-12-18T09:24:33;1541.03;;;888.58;;
64403;SDS011;50726;54.912;-8.392;2022-12-18T09:26:59;1540.20;;;892.28;;
64403;SDS011;50726;54.912;-8.392;2022-12-18T09:29:36;1546.82;;;893.25;;
64403;SDS011;50726;54.912;-8.392;2022-12-18T09:32:01;1534.50;;;894.72;;
64403;SDS011;50726;54.912;-8.392;2022-12-18T09:34:30;1540.22;;;897.50;;
64403;SDS011;50726;54.912;-8.392;2022-12-18T09:37:01;1532.82;;;894.95;;
64403;SDS011;50726;54.912;-8.392;2022-12-18T09:39:35;1522.25;;;889.97;;
64403;SDS011;50726;54.912;-8.392;2022-12-18T09:42:03;1532.80;;;894.92;;
64403;SDS011;50726;54.912;-8.392;2022-12-18T09:44:32;1583.25;;;885.97;;
64403;SDS011;50726;54.912;-8.392;2022-12-18T09:50:04;1571.65;;;881.30;;
64403;SDS011;50726;54.912;-8.392;2022-12-18T09:52:56;1610.97;;;890.13;;
64403;SDS011;50726;54.912;-8.392;2022-12-18T09:55:41;1593.88;;;900.60;;
64403;SDS011;50726;54.912;-8.392;2022-12-18T10:00:55;1622.45;;;901.22;;
64403;SDS011;50726;54.912;-8.392;2022-12-18T10:03:21;1615.75;;;903.28;;
64403;SDS011;50726;54.912;-8.392;2022-12-18T10:05:56;1613.35;;;903.78;;
64403;SDS011;50726;54.912;-8.392;2022-12-18T10:08:38;1600.30;;;902.08;;
64403;SDS011;50726;54.912;-8.392;2022-12-18T10:14:28;1626.82;;;897.28;;
64403;SDS011;50726;54.912;-8.392;2022-12-18T10:17:03;1644.00;;;900.95;;
64403;SDS011;50726;54.912;-8.392;2022-12-18T10:22:35;1672.43;;;907.22;;
64403;SDS011;50726;54.912;-8.392;2022-12-18T10:28:15;1681.30;;;915.00;;
64403;SDS011;50726;54.912;-8.392;2022-12-18T10:30:43;1691.70;;;902.33;;
64403;SDS011;50726;54.912;-8.392;2022-12-18T10:33:19;1679.18;;;898.03;;
64403;SDS011;50726;54.912;-8.392;2022-12-18T10:35:48;1646.20;;;897.25;;
64403;SDS011;50726;54.912;-8.392;2022-12-18T10:43:25;1660.05;;;905.78;;
64403;SDS011;50726;54.912;-8.392;2022-12-18T10:46:00;1663.55;;;905.67;;
64403;SDS011;50726;54.912;-8.392;2022-12-18T10:48:26;1662.53;;;906.60;;
64403;SDS011;50726;54.912;-8.392;2022-12-18T10:50:54;1668.93;;;904.95;;
64403;SDS011;50726;54.912;-8.392;2022-12-18T10:53:21;1671.60;;;904.50;;
64403;SDS011;50726;54.912;-8.392;2022-12-18T10:55:50;1688.57;;;910.92;;
64403;SDS011;50726;54.912;-8.392;2022-12-18T10:58:25;1690.53;;;907.55;;
64403;SDS011;50726;54.912;-8.392;2022-12-18T11:01:09;1704.18;;;914.85;;
64403;SDS011;50726;54.912;-8.392;2022-12-18T11:03:44;1691.78;;;913.80;;
64403;SDS011;50726;54.912;-8.392;2022-12-18T11:06:12;1690.57;;;906.38;;
64403;SDS011;50726;54.912;-8.392;2022-12-18T11:08:43;1689.15;;;918.78;;
64403;SDS011;50726;54.912;-8.392;2022-12-18T11:11:23;1681.38;;;908.08;;
64403;SDS011;50726;54.912;-8.392;2022-12-18T11:16:29;1669.28;;;925.08;;
64403;SDS011;50726;54.912;-8.392;2022-12-18T11:22:20;1697.15;;;918.45;;
64403;SDS011;50726;54.912;-8.392;2022-12-18T11:27:33;1656.47;;;930.72;;
64403;SDS011;50726;54.912;-8.392;2022-12-18T11:30:09;1670.68;;;935.25;;
64403;SDS011;50726;54.912;-8.392;2022-12-18T11:32:50;1665.18;;;934.55;;
64403;SDS011;50726;54.912;-8.392;2022-12-18T11:37:54;1667.05;;;915.47;;
64403;SDS011;50726;54.912;-8.392;2022-12-18T11:40:33;1672.75;;;917.60;;
64403;SDS011;50726;54.912;-8.392;2022-12-18T11:45:52;1658.35;;;939.33;;
64403;SDS011;50726;54.912;-8.392;2022-12-18T11:48:43;1670.78;;;923.95;;
64403;SDS011;50726;54.912;-8.392;2022-12-18T11:51:33;1677.00;;;915.03;;
64403;SDS011;50726;54.912;-8.392;2022-12-18T11:54:15;1690.35;;;910.13;;
64403;SDS011;50726;54.912;-8.392;2022-12-18T11:56:49;1646.88;;;930.33;;
64403;SDS011;50726;54.912;-8.392;2022-12-18T12:05:12;1641.28;;;928.63;;
64403;SDS011;50726;54.912;-8.392;2022-12-18T12:08:06;1645.78;;;911.58;;
64403;SDS011;50726;54.912;-8.392;2022-12-18T12:10:58;1636.32;;;914.58;;
64403;SDS011;50726;54.912;-8.392;2022-12-18T12:16:48;1607.30;;;914.03;;
64403;SDS011;50726;54.912;-8.392;2022-12-18T12:25:40;1590.13;;;901.78;;
64403;SDS011;50726;54.912;-8.392;2022-12-18T12:28:19;1595.28;;;902.40;;
64403;SDS011;50726;54.912;-8.392;2022-12-18T12:34:01;1620.85;;;907.42;;
64403;SDS011;50726;54.912;-8.392;2022-12-18T12:36:47;1626.60;;;904.92;;
64403;SDS011;50726;54.912;-8.392;2022-12-18T12:39:37;1622.93;;;901.92;;
64403;SDS011;50726;54.912;-8.392;2022-12-18T12:45:37;1632.40;;;911.03;;
64403;SDS011;50726;54.912;-8.392;2022-12-18T12:51:11;1613.05;;;912.97;;
64403;SDS011;50726;54.912;-8.392;2022-12-18T12:53:44;1599.72;;;906.65;;
64403;SDS011;50726;54.912;-8.392;2022-12-18T12:56:14;1589.63;;;905.03;;
64403;SDS011;50726;54.912;-8.392;2022-12-18T13:13:00;1527.03;;;888.45;;
64403;SDS011;50726;54.912;-8.392;2022-12-18T13:15:34;1526.38;;;885.42;;
64403;SDS011;50726;54.912;-8.392;2022-12-18T13:18:18;1519.75;;;883.60;;
64403;SDS011;50726;54.912;-8.392;2022-12-18T13:26:55;1532.22;;;873.55;;
64403;SDS011;50726;54.912;-8.392;2022-12-18T13:32:31;1527.10;;;871.47;;
64403;SDS011;50726;54.912;-8.392;2022-12-18T13:37:52;1533.72;;;870.60;;
64403;SDS011;50726;54.912;-8.392;2022-12-18T13:43:29;1520.10;;;861.35;;
64403;SDS011;50726;54.912;-8.392;2022-12-18T13:46:19;1540.00;;;870.08;;
64403;SDS011;50726;54.912;-8.392;2022-12-18T13:51:46;1515.20;;;862.97;;
64403;SDS011;50726;54.912;-8.392;2022-12-18T13:57:24;1519.50;;;863.97;;
64403;SDS011;50726;54.912;-8.392;2022-12-18T14:00:23;1516.90;;;865.10;;
64403;SDS011;50726;54.912;-8.392;2022-12-18T14:08:18;1485.00;;;854.20;;
64403;SDS011;50726;54.912;-8.392;2022-12-18T14:13:30;1452.40;;;847.00;;
64403;SDS011;50726;54.912;-8.392;2022-12-18T14:16:23;1407.53;;;833.63;;
64403;SDS011;50726;54.912;-8.392;2022-12-18T14:19:12;1422.00;;;836.05;;
64403;SDS011;50726;54.912;-8.392;2022-12-18T14:24:16;1427.38;;;841.17;;
64403;SDS011;50726;54.912;-8.392;2022-12-18T14:26:47;1437.38;;;843.90;;
64403;SDS011;50726;54.912;-8.392;2022-12-18T14:29:25;1427.47;;;840.55;;
64403;SDS011;50726;54.912;-8.392;2022-12-18T14:34:34;1423.30;;;841.22;;
64403;SDS011;50726;54.912;-8.392;2022-12-18T14:39:36;1406.65;;;838.00;;
64403;SDS011;50726;54.912;-8.392;2022-12-18T14:42:03;1398.95;;;838.03;;
64403;SDS011;50726;54.912;-8.392;2022-12-18T14:49:44;1399.30;;;840.08;;
64403;SDS011;50726;54.912;-8.392;2022-12-18T14:52:21;1384.85;;;839.22;;
64403;SDS011;50726;54.912;-8.392;2022-12-18T14:57:34;1385.45;;;835.65;;
64403;SDS011;50726;54.912;-8.392;2022-12-18T15:00:05;1363.43;;;831.72;;
64403;SDS011;50726;54.912;-8.392;2022-12-18T15:05:29;1341.22;;;828.47;;
64403;SDS011;50726;54.912;-8.392;2022-12-18T15:07:59;1353.88;;;832.17;;
64403;SDS011;50726;54.912;-8.392;2022-12-18T15:20:49;1312.65;;;819.10;;
64403;SDS011;50726;54.912;-8.392;2022-12-18T15:26:08;1310.18;;;818.67;;
64403;SDS011;50726;54.912;-8.392;2022-12-18T15:31:06;1287.95;;;813.17;;
64403;SDS011;50726;54.912;-8.392;2022-12-18T15:36:21;1264.15;;;808.22;;
64403;SDS011;50726;54.912;-8.392;2022-12-18T15:38:50;1216.78;;;795.55;;
64403;SDS011;50726;54.912;-8.392;2022-12-18T15:41:19;1213.32;;;795.53;;
64403;SDS011;50726;54.912;-8.392;2022-12-18T15:43:50;1209.75;;;798.15;;
64403;SDS011;50726;54.912;-8.392;2022-12-18T15:46:19;1189.00;;;795.72;;
64403;SDS011;50726;54.912;-8.392;2022-12-18T15:54:04;1187.30;;;792.55;;
64403;SDS011;50726;54.912;-8.392;2022-12-18T15:56:40;1181.28;;;797.55;;
64403;SDS011;50726;54.912;-8.392;2022-12-18T15:59:24;1161.45;;;784.83;;
64403;SDS011;50726;54.912;-8.392;2022-12-18T16:01:51;1166.13;;;790.70;;
64403;SDS011;50726;54.912;-8.392;2022-12-18T16:04:21;1146.35;;;787.78;;
64403;SDS011;50726;54.912;-8.392;2022-12-18T16:06:49;1143.40;;;782.08;;
64403;SDS011;50726;54.912;-8.392;2022-12-18T16:09:16;1147.03;;;781.00;;
64403;SDS011;50726;54.912;-8.392;2022-12-18T16:11:42;1140.35;;;770.13;;
64403;SDS011;50726;54.912;-8.392;2022-12-18T16:14:17;1131.03;;;769.38;;
64403;SDS011;50726;54.912;-8.392;2022-12-18T16:16:47;1110.50;;;768.83;;
64403;SDS011;50726;54.912;-8.392;2022-12-18T16:19:18;1102.05;;;769.65;;
64403;SDS011;50726;54.912;-8.392;2022-12-18T16:21:44;1106.95;;;775.05;;
64403;SDS011;50726;54.912;-8.392;2022-12-18T16:24:21;1108.38;;;773.35;;
64403;SDS011;50726;54.912;-8.392;2022-12-18T16:26:49;1112.50;;;775.00;;
64403;SDS011;50726;54.912;-8.392;2022-12-18T16:29:16;1102.10;;;764.72;;
64403;SDS011;50726;54.912;-8.392;2022-12-18T16:31:43;1084.93;;;749.72;;
64403;SDS011;50726;54.912;-8.392;2022-12-18T16:34:10;1088.68;;;756.03;;
64403;SDS011;50726;54.912;-8.392;2022-12-18T16:36:58;1098.45;;;769.70;;
64403;SDS011;50726;54.912;-8.392;2022-12-18T16:39:26;1088.15;;;760.78;;
64403;SDS011;50726;54.912;-8.392;2022-12-18T16:41:53;1082.95;;;751.22;;
64403;SDS011;50726;54.912;-8.392;2022-12-18T16:44:19;1085.82;;;763.08;;
64403;SDS011;50726;54.912;-8.392;2022-12-18T16:46:46;1085.53;;;766.90;;
64403;SDS011;50726;54.912;-8.392;2022-12-18T16:49:12;1053.70;;;762.47;;
64403;SDS011;50726;54.912;-8.392;2022-12-18T16:51:39;1059.05;;;764.88;;
64403;SDS011;50726;54.912;-8.392;2022-12-18T16:54:05;1017.67;;;750.22;;
64403;SDS011;50726;54.912;-8.392;2022-12-18T16:56:31;1030.38;;;760.50;;
64403;SDS011;50726;54.912;-8.392;2022-12-18T16:58:58;1010.17;;;744.13;;
64403;SDS011;50726;54.912;-8.392;2022-12-18T17:01:26;1017.17;;;755.17;;
64403;SDS011;50726;54.912;-8.392;2022-12-18T17:03:55;1007.72;;;745.95;;
64403;SDS011;50726;54.912;-8.392;2022-12-18T17:06:22;1010.40;;;733.08;;
64403;SDS011;50726;54.912;-8.392;2022-12-18T17:08:54;1004.35;;;744.97;;
64403;SDS011;50726;54.912;-8.392;2022-12-18T17:11:27;984.88;;;731.55;;
64403;SDS011;50726;54.912;-8.392;2022-12-18T17:13:55;986.05;;;730.83;;
64403;SDS011;50726;54.912;-8.392;2022-12-18T17:16:21;988.22;;;734.58;;
64403;SDS011;50726;54.912;-8.392;2022-12-18T17:18:47;993.03;;;741.38;;
64403;SDS011;50726;54.912;-8.392;2022-12-18T17:21:14;981.15;;;740.63;;
64403;SDS011;50726;54.912;-8.392;2022-12-18T17:23:41;966.00;;;725.78;;